WetterOnline ( https://www.wetteronline.de )

Wetter aktuell Waren

Aktuelles Wetter: Waren (71m)

6-stündlich | Neueste Meldungen
Ortszeit Temperatur Wetter
Do, 16.07. 2:00 11.5° C leicht bewölkt
Mi, 15.07. 20:00 16.9° C bedeckt
Mi, 15.07. 14:00 15.9° C bedeckt
Mi, 15.07. 8:00 14.1° C leichter Regen
Mi, 15.07. 2:00 15.2° C leichter Regen
Di, 14.07. 20:00 19.2° C wolkig
Di, 14.07. 14:00 24.2° C wolkig
Di, 14.07. 8:00 17.3° C leicht bewölkt
Ortszeit Temperatur Wetter
Do, 16.07. 3:30 11.8° C bedeckt
Do, 16.07. 3:20 11.8° C bedeckt
Do, 16.07. 3:10 11.6° C bedeckt
Do, 16.07. 3:00 11.5° C wolkig
Do, 16.07. 2:50 11.5° C wolkig
Do, 16.07. 2:40 11.6° C leicht bewölkt
Do, 16.07. 2:30 11.4° C fast wolkenlos
Do, 16.07. 2:00 11.5° C leicht bewölkt
Do, 16.07. 1:30 11.6° C fast wolkenlos
Do, 16.07. 1:00 12.1° C wolkenlos
Do, 16.07. 0:30 12.7° C wolkenlos
Do, 16.07. 0:00 12.6° C wolkenlos
Ortszeit Relative Feuchte Sichtweite
Do, 16.07. 2:00 97% 21 km
Mi, 15.07. 20:00 83% >70 km
Mi, 15.07. 14:00 87% 60 km
Mi, 15.07. 8:00 92% 11 km
Mi, 15.07. 2:00 93% 7 km
Di, 14.07. 20:00 68% 55 km
Di, 14.07. 14:00 45% 60 km
Di, 14.07. 8:00 67% >70 km
Ortszeit Relative Feuchte Sichtweite
Do, 16.07. 3:30 97% 25 km
Do, 16.07. 3:20 97% -
Do, 16.07. 3:10 97% -
Do, 16.07. 3:00 97% 20 km
Do, 16.07. 2:50 97% -
Do, 16.07. 2:40 97% -
Do, 16.07. 2:30 97% 23 km
Do, 16.07. 2:00 97% 21 km
Do, 16.07. 1:30 97% 20 km
Do, 16.07. 1:00 95% 23 km
Do, 16.07. 0:30 93% 40 km
Do, 16.07. 0:00 93% 40 km
Ortszeit Niederschlagsmenge Niederschlagsart
Do, 16.07. 2:00 0.1 l/m2 in 6 Std. Regen
Mi, 15.07. 20:00 8 l/m2 in 12 Std. Regen
Mi, 15.07. 14:00 6 l/m2 in 6 Std. Regen
Mi, 15.07. 8:00 2 l/m2 in 12 Std. Regen
Mi, 15.07. 2:00 0.5 l/m2 in 6 Std. Regen
Di, 14.07. 20:00 0.1 l/m2 in 12 Std. Regen
Di, 14.07. 14:00 0.0 l/m2 in 6 Std. -
Di, 14.07. 8:00 0.0 l/m2 in 12 Std. -
Ortszeit Niederschlagsmenge Niederschlagsart
Do, 16.07. 3:30 0.0 l/m2 in 1 Std. -
Do, 16.07. 3:20 keine Meldung -
Do, 16.07. 3:10 keine Meldung -
Do, 16.07. 3:00 0.0 l/m2 in 1 Std. -
Do, 16.07. 2:50 keine Meldung -
Do, 16.07. 2:40 keine Meldung -
Do, 16.07. 2:30 0.0 l/m2 in 1 Std. -
Do, 16.07. 2:00 0.0 l/m2 in 1 Std. Regen
Do, 16.07. 1:30 0.0 l/m2 in 1 Std. -
Do, 16.07. 1:00 0.0 l/m2 in 1 Std. -
Do, 16.07. 0:30 0.0 l/m2 in 1 Std. -
Do, 16.07. 0:00 0.0 l/m2 in 1 Std. -
Ortszeit Stärke Spitze Richtung
km/h Bft. km/h Grad Sektor
Do, 16.07. 2:00 4 1 14 310° NW
Mi, 15.07. 20:00 4 1 18 240° SW
Mi, 15.07. 14:00 6 1 15 340° N
Mi, 15.07. 8:00 7 2 14 270° W
Mi, 15.07. 2:00 0 0 18 - -
Di, 14.07. 20:00 9 2 30 340° N
Di, 14.07. 14:00 11 2 29 200° S
Di, 14.07. 8:00 7 2 14 140° SO
Ortszeit Stärke Spitze Richtung
km/h Bft. km/h Grad Sektor
Do, 16.07. 3:30 4 1 11 270° W
Do, 16.07. 3:20 4 1 - 270° W
Do, 16.07. 3:10 6 1 - 270° W
Do, 16.07. 3:00 6 1 7 290° W
Do, 16.07. 2:50 6 1 - 290° W
Do, 16.07. 2:40 4 1 - 310° NW
Do, 16.07. 2:30 4 1 7 320° NW
Do, 16.07. 2:00 4 1 7 310° NW
Do, 16.07. 1:30 2 1 6 350° N
Do, 16.07. 1:00 4 1 7 300° NW
Do, 16.07. 0:30 6 1 7 300° NW
Do, 16.07. 0:00 4 1 11 290° W
Ortszeit Untergrenze Bedeckung Gattung
total tief tief mittel hoch
Do, 16.07. 2:00 2400 m 2/8 2/8 - - -
Mi, 15.07. 20:00 2700 m 8/8 8/8 - - -
Mi, 15.07. 14:00 300 m 8/8 8/8 - - -
Mi, 15.07. 8:00 1500 m 8/8 8/8 - - -
Mi, 15.07. 2:00 1800 m 7/8 7/8 - - -
Di, 14.07. 20:00 2700 m 7/8 5/8 - - -
Di, 14.07. 14:00 2100 m 6/8 6/8 - - -
Di, 14.07. 8:00 8700 m 8/8 0/8 - - -
Ortszeit Bedeckungsgrad in Achtel und Wolkenuntergrenze
Do, 16.07. 3:30 8(2700m)
Do, 16.07. 3:20 8(2700m)
Do, 16.07. 3:10 8(2700m)
Do, 16.07. 3:00 6(2700m)
Do, 16.07. 2:50 6(2700m)
Do, 16.07. 2:40 3(2700m)
Do, 16.07. 2:30 1(2700m)
Do, 16.07. 2:00 2(2400m)
Do, 16.07. 1:30 3(2400m)
Do, 16.07. 1:00 keine Wolken
Do, 16.07. 0:30 keine Wolken
Do, 16.07. 0:00 keine Wolken
Ortszeit Luftdruck NN (hPa) Tendenz (hPa in 3 Std.)
Do, 16.07. 2:00 1014 + 0,3
Mi, 15.07. 20:00 1013 - 0,1
Mi, 15.07. 14:00 1013 + 0,4
Mi, 15.07. 8:00 1012 + 0,3
Mi, 15.07. 2:00 1012 - 0,6
Di, 14.07. 20:00 1012 0,0
Di, 14.07. 14:00 1013 - 1,7
Di, 14.07. 8:00 1016 - 1,4
Ortszeit Luftdruck NN (hPa) Tendenz (hPa in 3 Std.)
Do, 16.07. 3:30 1014 + 0,3
Do, 16.07. 3:20 1014 keine Meldung
Do, 16.07. 3:10 1014 keine Meldung
Do, 16.07. 3:00 1014 + 0,5
Do, 16.07. 2:50 1014 keine Meldung
Do, 16.07. 2:40 1014 keine Meldung
Do, 16.07. 2:30 1014 + 0,4
Do, 16.07. 2:00 1014 + 0,3
Do, 16.07. 1:30 1014 + 0,4
Do, 16.07. 1:00 1014 + 0,5
Do, 16.07. 0:30 1014 + 0,5
Do, 16.07. 0:00 1014 + 0,6
Ortszeit Schneehöhe (cm)
Do, 16.07. 2:00 -
Mi, 15.07. 20:00 -
Mi, 15.07. 14:00 -
Mi, 15.07. 8:00 -
Mi, 15.07. 2:00 -
Di, 14.07. 20:00 -
Di, 14.07. 14:00 -
Di, 14.07. 8:00 -
Ortszeit Schneehöhe (cm)
Do, 16.07. 3:30 -
Do, 16.07. 3:20 -
Do, 16.07. 3:10 -
Do, 16.07. 3:00 -
Do, 16.07. 2:50 -
Do, 16.07. 2:40 -
Do, 16.07. 2:30 -
Do, 16.07. 2:00 -
Do, 16.07. 1:30 -
Do, 16.07. 1:00 -
Do, 16.07. 0:30 -
Do, 16.07. 0:00 -
Link zu dieser Seite / Seite empfehlen

Das Wetter in ...